Terminal Aerodrome Forecast
Issued by NWS Wilmington, NC

Home | Current Version | Previous Version | Text Only | Print | Product List | Glossary On
Versions: 1 2 3 4 5 6 7 8 9 10 11 12 13 14 15 16 17 18 19 20 21 22
000
FTUS42 KILM 241120
TAFMYR
TAF
KMYR 241120Z 2412/2512 20004KT P6SM VCSH FEW006 BKN019 OVC090
      TEMPO 2417/2419 2SM SHRA OVC004
     FM241900 20017G29KT P6SM VCSH OVC040
     FM242100 20017G29KT 6SM SHRA OVC025 PROB30 2421/2503 2SM TS
      OVC004CB
     FM250600 22015G25KT P6SM OVC008 PROB30 2506/2511 2SM TSRA
      OVC004CB=

USA.gov is the U.S. government's official web portal to all federal, state and local government web resources and services.